sensor_id;sensor_type;location;lat;lon;timestamp;P1;durP1;ratioP1;P2;durP2;ratioP2
8268;SDS011;4174;48.304;16.364;2023-04-03T00:04:30;6.63;;;2.50;;
8268;SDS011;4174;48.304;16.364;2023-04-03T00:10:33;6.73;;;2.60;;
8268;SDS011;4174;48.304;16.364;2023-04-03T00:16:36;6.87;;;2.53;;
8268;SDS011;4174;48.304;16.364;2023-04-03T00:22:40;6.63;;;2.40;;
8268;SDS011;4174;48.304;16.364;2023-04-03T00:28:44;6.37;;;2.53;;
8268;SDS011;4174;48.304;16.364;2023-04-03T00:34:48;6.97;;;2.62;;
8268;SDS011;4174;48.304;16.364;2023-04-03T00:40:51;6.83;;;2.77;;
8268;SDS011;4174;48.304;16.364;2023-04-03T00:46:54;6.40;;;2.53;;
8268;SDS011;4174;48.304;16.364;2023-04-03T00:52:58;6.60;;;2.53;;
8268;SDS011;4174;48.304;16.364;2023-04-03T00:59:02;5.78;;;2.15;;
8268;SDS011;4174;48.304;16.364;2023-04-03T01:05:05;6.57;;;2.67;;
8268;SDS011;4174;48.304;16.364;2023-04-03T01:11:08;6.17;;;2.50;;
8268;SDS011;4174;48.304;16.364;2023-04-03T01:17:48;7.27;;;3.00;;
8268;SDS011;4174;48.304;16.364;2023-04-03T01:23:46;6.75;;;2.60;;
8268;SDS011;4174;48.304;16.364;2023-04-03T01:30:10;7.23;;;2.90;;
8268;SDS011;4174;48.304;16.364;2023-04-03T01:36:17;6.93;;;2.65;;
8268;SDS011;4174;48.304;16.364;2023-04-03T01:42:18;6.33;;;2.47;;
8268;SDS011;4174;48.304;16.364;2023-04-03T01:48:22;7.87;;;2.40;;
8268;SDS011;4174;48.304;16.364;2023-04-03T01:54:26;6.40;;;2.50;;
8268;SDS011;4174;48.304;16.364;2023-04-03T02:00:30;6.70;;;2.70;;
8268;SDS011;4174;48.304;16.364;2023-04-03T02:06:34;6.47;;;2.62;;
8268;SDS011;4174;48.304;16.364;2023-04-03T02:12:37;7.18;;;2.42;;
8268;SDS011;4174;48.304;16.364;2023-04-03T02:18:40;6.65;;;2.55;;
8268;SDS011;4174;48.304;16.364;2023-04-03T02:24:44;6.25;;;2.40;;
8268;SDS011;4174;48.304;16.364;2023-04-03T02:30:47;6.87;;;2.70;;
8268;SDS011;4174;48.304;16.364;2023-04-03T02:36:51;8.00;;;2.90;;
8268;SDS011;4174;48.304;16.364;2023-04-03T02:42:55;7.75;;;2.95;;
8268;SDS011;4174;48.304;16.364;2023-04-03T02:48:59;6.83;;;2.73;;
8268;SDS011;4174;48.304;16.364;2023-04-03T02:55:03;7.40;;;2.87;;
8268;SDS011;4174;48.304;16.364;2023-04-03T03:01:09;6.87;;;2.80;;
8268;SDS011;4174;48.304;16.364;2023-04-03T03:07:12;7.47;;;2.62;;
8268;SDS011;4174;48.304;16.364;2023-04-03T03:13:16;6.57;;;2.55;;
8268;SDS011;4174;48.304;16.364;2023-04-03T03:19:20;6.43;;;2.37;;
8268;SDS011;4174;48.304;16.364;2023-04-03T03:25:24;6.53;;;2.12;;
8268;SDS011;4174;48.304;16.364;2023-04-03T03:31:28;6.90;;;2.40;;
8268;SDS011;4174;48.304;16.364;2023-04-03T03:37:32;6.68;;;2.45;;
8268;SDS011;4174;48.304;16.364;2023-04-03T03:43:35;6.97;;;2.60;;
8268;SDS011;4174;48.304;16.364;2023-04-03T03:49:39;6.10;;;2.20;;
8268;SDS011;4174;48.304;16.364;2023-04-03T03:55:44;6.05;;;2.37;;
8268;SDS011;4174;48.304;16.364;2023-04-03T04:01:47;5.43;;;2.10;;
8268;SDS011;4174;48.304;16.364;2023-04-03T04:07:52;7.27;;;2.73;;
8268;SDS011;4174;48.304;16.364;2023-04-03T04:13:56;6.85;;;2.70;;
8268;SDS011;4174;48.304;16.364;2023-04-03T04:20:00;6.40;;;2.70;;
8268;SDS011;4174;48.304;16.364;2023-04-03T04:26:02;6.57;;;2.60;;
8268;SDS011;4174;48.304;16.364;2023-04-03T04:32:05;7.47;;;2.73;;
8268;SDS011;4174;48.304;16.364;2023-04-03T04:38:11;6.77;;;2.53;;
8268;SDS011;4174;48.304;16.364;2023-04-03T04:44:14;8.00;;;2.60;;
8268;SDS011;4174;48.304;16.364;2023-04-03T04:50:18;6.67;;;2.63;;
8268;SDS011;4174;48.304;16.364;2023-04-03T04:56:21;6.17;;;2.50;;
8268;SDS011;4174;48.304;16.364;2023-04-03T05:02:25;7.47;;;2.40;;
8268;SDS011;4174;48.304;16.364;2023-04-03T05:08:29;7.28;;;2.60;;
8268;SDS011;4174;48.304;16.364;2023-04-03T05:14:32;6.72;;;2.65;;
8268;SDS011;4174;48.304;16.364;2023-04-03T05:20:36;6.57;;;2.63;;
8268;SDS011;4174;48.304;16.364;2023-04-03T05:26:39;6.83;;;2.50;;
8268;SDS011;4174;48.304;16.364;2023-04-03T05:32:42;6.93;;;2.70;;
8268;SDS011;4174;48.304;16.364;2023-04-03T05:38:45;7.27;;;2.63;;
8268;SDS011;4174;48.304;16.364;2023-04-03T05:44:48;6.82;;;2.47;;
8268;SDS011;4174;48.304;16.364;2023-04-03T05:50:52;7.43;;;2.80;;
8268;SDS011;4174;48.304;16.364;2023-04-03T05:56:55;6.63;;;2.53;;
8268;SDS011;4174;48.304;16.364;2023-04-03T06:02:59;8.63;;;2.50;;
8268;SDS011;4174;48.304;16.364;2023-04-03T06:09:02;7.90;;;2.50;;
8268;SDS011;4174;48.304;16.364;2023-04-03T06:15:07;6.10;;;2.40;;
8268;SDS011;4174;48.304;16.364;2023-04-03T06:21:11;6.83;;;2.60;;
8268;SDS011;4174;48.304;16.364;2023-04-03T06:27:15;7.55;;;2.60;;
8268;SDS011;4174;48.304;16.364;2023-04-03T06:33:19;7.03;;;2.67;;
8268;SDS011;4174;48.304;16.364;2023-04-03T06:39:23;6.93;;;2.45;;
8268;SDS011;4174;48.304;16.364;2023-04-03T06:45:27;7.37;;;2.63;;
8268;SDS011;4174;48.304;16.364;2023-04-03T06:51:31;6.60;;;2.60;;
8268;SDS011;4174;48.304;16.364;2023-04-03T06:57:34;6.93;;;2.50;;
8268;SDS011;4174;48.304;16.364;2023-04-03T07:03:38;7.90;;;3.10;;
8268;SDS011;4174;48.304;16.364;2023-04-03T07:09:40;7.80;;;2.77;;
8268;SDS011;4174;48.304;16.364;2023-04-03T07:15:45;7.60;;;2.70;;
8268;SDS011;4174;48.304;16.364;2023-04-03T07:21:49;8.25;;;3.00;;
8268;SDS011;4174;48.304;16.364;2023-04-03T07:27:52;9.47;;;3.03;;
8268;SDS011;4174;48.304;16.364;2023-04-03T07:33:55;6.72;;;2.72;;
8268;SDS011;4174;48.304;16.364;2023-04-03T07:39:59;7.93;;;2.95;;
8268;SDS011;4174;48.304;16.364;2023-04-03T07:46:04;8.10;;;2.80;;
8268;SDS011;4174;48.304;16.364;2023-04-03T07:52:05;8.17;;;3.10;;
8268;SDS011;4174;48.304;16.364;2023-04-03T07:58:10;7.87;;;2.83;;
8268;SDS011;4174;48.304;16.364;2023-04-03T08:04:12;7.32;;;2.72;;
8268;SDS011;4174;48.304;16.364;2023-04-03T08:10:17;8.07;;;3.10;;
8268;SDS011;4174;48.304;16.364;2023-04-03T08:16:20;7.37;;;2.80;;
8268;SDS011;4174;48.304;16.364;2023-04-03T08:22:22;7.47;;;3.00;;
8268;SDS011;4174;48.304;16.364;2023-04-03T08:28:26;6.22;;;2.80;;
8268;SDS011;4174;48.304;16.364;2023-04-03T08:34:30;6.30;;;2.70;;
8268;SDS011;4174;48.304;16.364;2023-04-03T08:40:33;6.33;;;2.63;;
8268;SDS011;4174;48.304;16.364;2023-04-03T08:46:44;7.25;;;2.83;;
8268;SDS011;4174;48.304;16.364;2023-04-03T08:52:52;8.70;;;2.70;;
8268;SDS011;4174;48.304;16.364;2023-04-03T08:58:56;6.70;;;2.70;;
8268;SDS011;4174;48.304;16.364;2023-04-03T09:05:01;7.40;;;2.97;;
8268;SDS011;4174;48.304;16.364;2023-04-03T09:11:07;7.60;;;2.60;;
8268;SDS011;4174;48.304;16.364;2023-04-03T09:17:13;8.18;;;2.67;;
8268;SDS011;4174;48.304;16.364;2023-04-03T09:23:37;8.13;;;2.40;;
8268;SDS011;4174;48.304;16.364;2023-04-03T09:29:40;6.47;;;2.60;;
8268;SDS011;4174;48.304;16.364;2023-04-03T09:35:43;7.05;;;2.70;;
8268;SDS011;4174;48.304;16.364;2023-04-03T10:00:36;6.53;;;2.30;;
8268;SDS011;4174;48.304;16.364;2023-04-03T10:06:41;7.53;;;2.40;;
8268;SDS011;4174;48.304;16.364;2023-04-03T10:19:13;6.37;;;2.30;;
8268;SDS011;4174;48.304;16.364;2023-04-03T10:25:29;6.73;;;2.50;;
8268;SDS011;4174;48.304;16.364;2023-04-03T10:31:50;6.90;;;2.60;;
8268;SDS011;4174;48.304;16.364;2023-04-03T10:38:31;6.33;;;2.10;;
8268;SDS011;4174;48.304;16.364;2023-04-03T10:51:22;6.57;;;2.40;;
8268;SDS011;4174;48.304;16.364;2023-04-03T10:57:39;6.10;;;2.20;;
8268;SDS011;4174;48.304;16.364;2023-04-03T11:03:44;7.28;;;2.30;;
8268;SDS011;4174;48.304;16.364;2023-04-03T11:09:52;7.20;;;2.30;;
8268;SDS011;4174;48.304;16.364;2023-04-03T11:15:52;6.63;;;2.20;;
8268;SDS011;4174;48.304;16.364;2023-04-03T11:21:57;6.95;;;2.30;;
8268;SDS011;4174;48.304;16.364;2023-04-03T11:28:00;6.10;;;2.37;;
8268;SDS011;4174;48.304;16.364;2023-04-03T11:34:08;6.50;;;2.30;;
8268;SDS011;4174;48.304;16.364;2023-04-03T11:40:24;6.27;;;2.50;;
8268;SDS011;4174;48.304;16.364;2023-04-03T11:52:56;6.00;;;2.10;;
8268;SDS011;4174;48.304;16.364;2023-04-03T12:05:26;7.03;;;2.50;;
8268;SDS011;4174;48.304;16.364;2023-04-03T12:11:30;6.53;;;2.30;;
8268;SDS011;4174;48.304;16.364;2023-04-03T12:17:32;6.22;;;2.30;;
8268;SDS011;4174;48.304;16.364;2023-04-03T12:23:37;5.85;;;2.53;;
8268;SDS011;4174;48.304;16.364;2023-04-03T12:29:40;6.10;;;2.50;;
8268;SDS011;4174;48.304;16.364;2023-04-03T12:35:57;6.43;;;2.30;;
8268;SDS011;4174;48.304;16.364;2023-04-03T12:42:04;6.33;;;2.30;;
8268;SDS011;4174;48.304;16.364;2023-04-03T12:48:25;5.80;;;2.23;;
8268;SDS011;4174;48.304;16.364;2023-04-03T12:54:31;6.37;;;2.17;;
8268;SDS011;4174;48.304;16.364;2023-04-03T13:00:40;5.93;;;2.27;;
8268;SDS011;4174;48.304;16.364;2023-04-03T13:06:44;7.00;;;2.20;;
8268;SDS011;4174;48.304;16.364;2023-04-03T13:12:51;6.50;;;2.35;;
8268;SDS011;4174;48.304;16.364;2023-04-03T13:18:53;6.87;;;2.22;;
8268;SDS011;4174;48.304;16.364;2023-04-03T13:24:55;6.80;;;2.10;;
8268;SDS011;4174;48.304;16.364;2023-04-03T13:31:05;6.60;;;2.10;;
8268;SDS011;4174;48.304;16.364;2023-04-03T13:37:07;6.90;;;2.10;;
8268;SDS011;4174;48.304;16.364;2023-04-03T13:49:22;6.70;;;2.00;;
8268;SDS011;4174;48.304;16.364;2023-04-03T13:55:26;6.22;;;2.03;;
8268;SDS011;4174;48.304;16.364;2023-04-03T14:01:37;6.15;;;1.92;;
8268;SDS011;4174;48.304;16.364;2023-04-03T14:07:39;5.47;;;1.97;;
8268;SDS011;4174;48.304;16.364;2023-04-03T14:13:44;5.97;;;1.90;;
8268;SDS011;4174;48.304;16.364;2023-04-03T14:19:49;7.57;;;2.30;;
8268;SDS011;4174;48.304;16.364;2023-04-03T14:25:49;6.80;;;2.13;;
8268;SDS011;4174;48.304;16.364;2023-04-03T14:31:53;6.40;;;2.10;;
8268;SDS011;4174;48.304;16.364;2023-04-03T14:37:56;7.27;;;2.13;;
8268;SDS011;4174;48.304;16.364;2023-04-03T14:44:00;6.85;;;2.05;;
8268;SDS011;4174;48.304;16.364;2023-04-03T14:50:06;6.43;;;2.10;;
8268;SDS011;4174;48.304;16.364;2023-04-03T14:56:12;6.07;;;2.00;;
8268;SDS011;4174;48.304;16.364;2023-04-03T15:02:32;5.85;;;1.98;;
8268;SDS011;4174;48.304;16.364;2023-04-03T15:08:35;5.70;;;2.10;;
8268;SDS011;4174;48.304;16.364;2023-04-03T15:14:39;5.75;;;1.90;;
8268;SDS011;4174;48.304;16.364;2023-04-03T15:20:43;6.03;;;1.80;;
8268;SDS011;4174;48.304;16.364;2023-04-03T15:26:46;7.20;;;2.23;;
8268;SDS011;4174;48.304;16.364;2023-04-03T15:32:50;7.28;;;2.20;;
8268;SDS011;4174;48.304;16.364;2023-04-03T15:38:53;5.75;;;2.00;;
8268;SDS011;4174;48.304;16.364;2023-04-03T15:44:57;6.10;;;2.08;;
8268;SDS011;4174;48.304;16.364;2023-04-03T15:51:00;6.27;;;2.00;;
8268;SDS011;4174;48.304;16.364;2023-04-03T15:57:04;6.20;;;1.90;;
8268;SDS011;4174;48.304;16.364;2023-04-03T16:03:10;7.30;;;2.07;;
8268;SDS011;4174;48.304;16.364;2023-04-03T16:09:14;5.95;;;2.05;;
8268;SDS011;4174;48.304;16.364;2023-04-03T16:15:18;7.67;;;2.03;;
8268;SDS011;4174;48.304;16.364;2023-04-03T16:21:21;6.60;;;2.33;;
8268;SDS011;4174;48.304;16.364;2023-04-03T16:27:24;6.72;;;2.10;;
8268;SDS011;4174;48.304;16.364;2023-04-03T16:33:27;5.87;;;2.10;;
8268;SDS011;4174;48.304;16.364;2023-04-03T16:39:30;7.03;;;2.30;;
8268;SDS011;4174;48.304;16.364;2023-04-03T16:45:33;7.43;;;2.30;;
8268;SDS011;4174;48.304;16.364;2023-04-03T16:51:37;6.90;;;2.13;;
8268;SDS011;4174;48.304;16.364;2023-04-03T16:57:41;6.20;;;2.00;;
8268;SDS011;4174;48.304;16.364;2023-04-03T17:03:46;7.35;;;2.50;;
8268;SDS011;4174;48.304;16.364;2023-04-03T17:09:49;6.93;;;2.10;;
8268;SDS011;4174;48.304;16.364;2023-04-03T17:15:52;6.33;;;1.90;;
8268;SDS011;4174;48.304;16.364;2023-04-03T17:21:56;7.37;;;2.60;;
8268;SDS011;4174;48.304;16.364;2023-04-03T17:27:58;7.12;;;2.50;;
8268;SDS011;4174;48.304;16.364;2023-04-03T17:34:02;8.13;;;2.20;;
8268;SDS011;4174;48.304;16.364;2023-04-03T17:40:05;7.10;;;2.40;;
8268;SDS011;4174;48.304;16.364;2023-04-03T17:46:10;6.85;;;2.42;;
8268;SDS011;4174;48.304;16.364;2023-04-03T17:52:14;8.53;;;3.13;;
8268;SDS011;4174;48.304;16.364;2023-04-03T17:58:18;7.20;;;2.50;;
8268;SDS011;4174;48.304;16.364;2023-04-03T18:04:22;8.38;;;2.50;;
8268;SDS011;4174;48.304;16.364;2023-04-03T18:10:26;6.95;;;2.20;;
8268;SDS011;4174;48.304;16.364;2023-04-03T18:16:29;6.90;;;2.30;;
8268;SDS011;4174;48.304;16.364;2023-04-03T18:22:32;7.40;;;2.40;;
8268;SDS011;4174;48.304;16.364;2023-04-03T18:28:36;6.60;;;2.30;;
8268;SDS011;4174;48.304;16.364;2023-04-03T18:34:39;6.40;;;2.30;;
8268;SDS011;4174;48.304;16.364;2023-04-03T18:40:42;7.55;;;2.03;;
8268;SDS011;4174;48.304;16.364;2023-04-03T18:46:46;6.75;;;2.15;;
8268;SDS011;4174;48.304;16.364;2023-04-03T18:52:49;6.67;;;2.30;;
8268;SDS011;4174;48.304;16.364;2023-04-03T18:58:53;6.80;;;2.27;;
8268;SDS011;4174;48.304;16.364;2023-04-03T19:04:57;7.28;;;2.42;;
8268;SDS011;4174;48.304;16.364;2023-04-03T19:11:01;7.33;;;2.30;;
8268;SDS011;4174;48.304;16.364;2023-04-03T19:17:04;8.10;;;2.30;;
8268;SDS011;4174;48.304;16.364;2023-04-03T19:23:09;8.73;;;2.60;;
8268;SDS011;4174;48.304;16.364;2023-04-03T19:29:13;7.60;;;2.20;;
8268;SDS011;4174;48.304;16.364;2023-04-03T19:35:17;6.87;;;2.37;;
8268;SDS011;4174;48.304;16.364;2023-04-03T19:41:21;6.60;;;2.20;;
8268;SDS011;4174;48.304;16.364;2023-04-03T19:47:24;9.43;;;2.47;;
8268;SDS011;4174;48.304;16.364;2023-04-03T19:53:26;6.33;;;2.20;;
8268;SDS011;4174;48.304;16.364;2023-04-03T19:59:29;7.13;;;2.30;;
8268;SDS011;4174;48.304;16.364;2023-04-03T20:05:33;6.83;;;2.50;;
8268;SDS011;4174;48.304;16.364;2023-04-03T20:11:37;8.03;;;2.30;;
8268;SDS011;4174;48.304;16.364;2023-04-03T20:17:40;5.97;;;2.27;;
8268;SDS011;4174;48.304;16.364;2023-04-03T20:23:43;6.03;;;2.13;;
8268;SDS011;4174;48.304;16.364;2023-04-03T20:29:47;7.50;;;2.17;;
8268;SDS011;4174;48.304;16.364;2023-04-03T20:35:51;6.30;;;2.33;;
8268;SDS011;4174;48.304;16.364;2023-04-03T20:41:54;6.55;;;2.22;;
8268;SDS011;4174;48.304;16.364;2023-04-03T20:47:58;6.32;;;2.10;;
8268;SDS011;4174;48.304;16.364;2023-04-03T20:54:00;6.47;;;2.30;;
8268;SDS011;4174;48.304;16.364;2023-04-03T21:00:04;6.07;;;2.17;;
8268;SDS011;4174;48.304;16.364;2023-04-03T21:24:55;6.40;;;2.40;;
8268;SDS011;4174;48.304;16.364;2023-04-03T21:30:57;8.57;;;2.63;;
8268;SDS011;4174;48.304;16.364;2023-04-03T21:37:02;7.33;;;2.43;;
8268;SDS011;4174;48.304;16.364;2023-04-03T21:43:05;6.35;;;2.50;;
8268;SDS011;4174;48.304;16.364;2023-04-03T21:49:09;6.43;;;2.33;;
8268;SDS011;4174;48.304;16.364;2023-04-03T21:55:12;7.65;;;2.40;;
8268;SDS011;4174;48.304;16.364;2023-04-03T22:01:16;6.23;;;2.30;;
8268;SDS011;4174;48.304;16.364;2023-04-03T22:07:20;6.60;;;2.37;;
8268;SDS011;4174;48.304;16.364;2023-04-03T22:13:24;7.53;;;2.55;;
8268;SDS011;4174;48.304;16.364;2023-04-03T22:19:27;10.23;;;2.50;;
8268;SDS011;4174;48.304;16.364;2023-04-03T22:25:31;7.53;;;2.30;;
8268;SDS011;4174;48.304;16.364;2023-04-03T22:31:33;7.23;;;2.70;;
8268;SDS011;4174;48.304;16.364;2023-04-03T22:37:36;7.97;;;2.60;;
8268;SDS011;4174;48.304;16.364;2023-04-03T22:43:40;6.37;;;2.30;;
8268;SDS011;4174;48.304;16.364;2023-04-03T22:49:44;7.63;;;2.30;;
8268;SDS011;4174;48.304;16.364;2023-04-03T22:55:53;7.50;;;2.33;;
8268;SDS011;4174;48.304;16.364;2023-04-03T23:01:58;5.95;;;2.10;;
8268;SDS011;4174;48.304;16.364;2023-04-03T23:08:02;7.10;;;2.15;;
8268;SDS011;4174;48.304;16.364;2023-04-03T23:14:06;6.18;;;2.12;;
8268;SDS011;4174;48.304;16.364;2023-04-03T23:24:16;6.77;;;2.27;;
8268;SDS011;4174;48.304;16.364;2023-04-03T23:30:22;6.80;;;2.35;;
8268;SDS011;4174;48.304;16.364;2023-04-03T23:36:30;8.07;;;2.30;;
8268;SDS011;4174;48.304;16.364;2023-04-03T23:42:36;6.87;;;2.22;;
8268;SDS011;4174;48.304;16.364;2023-04-03T23:48:41;7.20;;;2.30;;
8268;SDS011;4174;48.304;16.364;2023-04-03T23:54:48;8.07;;;2.30;;
